sensor_id;sensor_type;location;lat;lon;timestamp;pressure;altitude;pressure_sealevel;temperature;humidity
81511;BME280;70931;48.796;8.440;2024-01-16T00:01:06;96645.97;;;-0.17;68.56
81511;BME280;70931;48.796;8.440;2024-01-16T00:03:31;96666.94;;;0.05;69.07
81511;BME280;70931;48.796;8.440;2024-01-16T00:05:56;96668.28;;;-0.01;68.74
81511;BME280;70931;48.796;8.440;2024-01-16T00:08:21;96674.81;;;-0.06;68.62
81511;BME280;70931;48.796;8.440;2024-01-16T00:10:47;96672.66;;;0.21;68.72
81511;BME280;70931;48.796;8.440;2024-01-16T00:13:12;96672.91;;;-0.04;68.13
81511;BME280;70931;48.796;8.440;2024-01-16T00:15:37;96666.56;;;0.10;67.97
81511;BME280;70931;48.796;8.440;2024-01-16T00:18:03;96674.19;;;0.13;69.70
81511;BME280;70931;48.796;8.440;2024-01-16T00:20:28;96665.25;;;0.26;69.26
81511;BME280;70931;48.796;8.440;2024-01-16T00:22:53;96680.25;;;0.35;69.59
81511;BME280;70931;48.796;8.440;2024-01-16T00:25:19;96678.84;;;0.09;71.68
81511;BME280;70931;48.796;8.440;2024-01-16T00:27:45;96672.75;;;0.31;71.53
81511;BME280;70931;48.796;8.440;2024-01-16T00:30:11;96672.31;;;0.26;70.87
81511;BME280;70931;48.796;8.440;2024-01-16T00:32:36;96648.38;;;0.08;71.57
81511;BME280;70931;48.796;8.440;2024-01-16T00:35:02;96675.28;;;0.10;69.95
81511;BME280;70931;48.796;8.440;2024-01-16T00:37:27;96667.56;;;0.09;69.38
81511;BME280;70931;48.796;8.440;2024-01-16T00:39:52;96676.72;;;-0.08;69.03
81511;BME280;70931;48.796;8.440;2024-01-16T00:42:17;96673.84;;;0.06;68.26
81511;BME280;70931;48.796;8.440;2024-01-16T00:44:43;96679.31;;;0.25;69.45
81511;BME280;70931;48.796;8.440;2024-01-16T00:47:08;96681.81;;;0.27;70.40
81511;BME280;70931;48.796;8.440;2024-01-16T00:49:35;96677.41;;;0.27;70.45
81511;BME280;70931;48.796;8.440;2024-01-16T00:52:00;96669.69;;;0.26;68.96
81511;BME280;70931;48.796;8.440;2024-01-16T00:54:25;96680.16;;;0.26;68.59
81511;BME280;70931;48.796;8.440;2024-01-16T00:56:51;96675.28;;;0.10;67.98
81511;BME280;70931;48.796;8.440;2024-01-16T00:59:16;96687.22;;;0.14;67.56
81511;BME280;70931;48.796;8.440;2024-01-16T01:01:41;96675.75;;;0.04;67.59
81511;BME280;70931;48.796;8.440;2024-01-16T01:04:06;96676.97;;;0.00;68.28
81511;BME280;70931;48.796;8.440;2024-01-16T01:06:31;96678.03;;;-0.14;68.24
81511;BME280;70931;48.796;8.440;2024-01-16T01:08:57;96684.22;;;0.19;69.25
81511;BME280;70931;48.796;8.440;2024-01-16T01:11:22;96691.22;;;0.29;70.52
81511;BME280;70931;48.796;8.440;2024-01-16T01:13:47;96683.41;;;-0.15;68.51
81511;BME280;70931;48.796;8.440;2024-01-16T01:16:12;96692.44;;;0.14;67.55
81511;BME280;70931;48.796;8.440;2024-01-16T01:18:38;96685.88;;;0.20;69.98
81511;BME280;70931;48.796;8.440;2024-01-16T01:21:03;96686.69;;;0.20;69.64
81511;BME280;70931;48.796;8.440;2024-01-16T01:23:28;96691.25;;;0.07;69.76
81511;BME280;70931;48.796;8.440;2024-01-16T01:25:53;96686.00;;;-0.26;68.92
81511;BME280;70931;48.796;8.440;2024-01-16T01:28:19;96682.91;;;-0.09;68.74
81511;BME280;70931;48.796;8.440;2024-01-16T01:30:44;96686.00;;;-0.04;68.83
81511;BME280;70931;48.796;8.440;2024-01-16T01:33:09;96685.06;;;-0.03;68.47
81511;BME280;70931;48.796;8.440;2024-01-16T01:35:34;96687.22;;;0.14;68.77
81511;BME280;70931;48.796;8.440;2024-01-16T01:37:59;96681.63;;;-0.04;68.37
81511;BME280;70931;48.796;8.440;2024-01-16T01:40:25;96627.63;;;-0.50;69.21
81511;BME280;70931;48.796;8.440;2024-01-16T01:42:50;96687.91;;;0.05;69.19
81511;BME280;70931;48.796;8.440;2024-01-16T01:45:15;96686.00;;;0.07;68.92
81511;BME280;70931;48.796;8.440;2024-01-16T01:47:41;96687.31;;;0.02;68.32
81511;BME280;70931;48.796;8.440;2024-01-16T01:50:06;96685.53;;;0.13;68.30
81511;BME280;70931;48.796;8.440;2024-01-16T01:52:33;96689.34;;;0.09;68.47
81511;BME280;70931;48.796;8.440;2024-01-16T01:54:58;96695.31;;;0.11;68.41
81511;BME280;70931;48.796;8.440;2024-01-16T01:57:23;96696.97;;;0.01;68.70
81511;BME280;70931;48.796;8.440;2024-01-16T01:59:50;96691.03;;;-0.01;68.54
81511;BME280;70931;48.796;8.440;2024-01-16T02:02:16;96694.09;;;0.15;67.90
81511;BME280;70931;48.796;8.440;2024-01-16T02:04:43;96689.59;;;0.17;68.54
81511;BME280;70931;48.796;8.440;2024-01-16T02:07:08;96689.31;;;0.20;69.35
81511;BME280;70931;48.796;8.440;2024-01-16T02:09:34;96674.34;;;0.00;72.76
81511;BME280;70931;48.796;8.440;2024-01-16T02:12:00;96697.94;;;0.11;71.99
81511;BME280;70931;48.796;8.440;2024-01-16T02:14:25;96687.91;;;0.16;72.70
81511;BME280;70931;48.796;8.440;2024-01-16T02:16:50;96694.09;;;0.04;71.37
81511;BME280;70931;48.796;8.440;2024-01-16T02:19:16;96688.84;;;0.15;71.40
81511;BME280;70931;48.796;8.440;2024-01-16T02:21:47;96690.16;;;0.10;72.49
81511;BME280;70931;48.796;8.440;2024-01-16T02:24:13;96681.72;;;-0.05;72.04
81511;BME280;70931;48.796;8.440;2024-01-16T02:26:38;96673.84;;;-0.16;71.51
81511;BME280;70931;48.796;8.440;2024-01-16T02:29:04;96681.94;;;-0.19;72.79
81511;BME280;70931;48.796;8.440;2024-01-16T02:31:30;96681.94;;;-0.08;72.83
81511;BME280;70931;48.796;8.440;2024-01-16T02:33:55;96684.00;;;-0.01;73.21
81511;BME280;70931;48.796;8.440;2024-01-16T02:36:20;96686.94;;;-0.05;72.46
81511;BME280;70931;48.796;8.440;2024-01-16T02:38:46;96664.38;;;-0.63;74.05
81511;BME280;70931;48.796;8.440;2024-01-16T02:41:13;96689.56;;;-0.27;74.93
81511;BME280;70931;48.796;8.440;2024-01-16T02:43:39;96692.19;;;-0.27;74.05
81511;BME280;70931;48.796;8.440;2024-01-16T02:46:04;96684.09;;;-0.13;73.12
81511;BME280;70931;48.796;8.440;2024-01-16T02:48:29;96688.75;;;-0.17;72.24
81511;BME280;70931;48.796;8.440;2024-01-16T02:50:54;96685.28;;;-0.17;73.18
81511;BME280;70931;48.796;8.440;2024-01-16T02:53:19;96693.03;;;-0.27;73.19
81511;BME280;70931;48.796;8.440;2024-01-16T02:55:45;96702.44;;;-0.24;73.96
81511;BME280;70931;48.796;8.440;2024-01-16T02:58:10;96701.22;;;-0.31;73.20
81511;BME280;70931;48.796;8.440;2024-01-16T03:00:35;96701.88;;;-0.97;75.83
81511;BME280;70931;48.796;8.440;2024-01-16T03:03:00;96704.03;;;-0.68;75.00
81511;BME280;70931;48.796;8.440;2024-01-16T03:05:26;96707.75;;;-0.48;74.86
81511;BME280;70931;48.796;8.440;2024-01-16T03:07:51;96709.19;;;-0.44;73.56
81511;BME280;70931;48.796;8.440;2024-01-16T03:10:16;96710.53;;;-0.38;74.22
81511;BME280;70931;48.796;8.440;2024-01-16T03:12:41;96708.47;;;-0.46;73.99
81511;BME280;70931;48.796;8.440;2024-01-16T03:15:06;96713.53;;;-0.78;74.31
81511;BME280;70931;48.796;8.440;2024-01-16T03:17:32;96708.53;;;-0.81;75.24
81511;BME280;70931;48.796;8.440;2024-01-16T03:19:57;96713.81;;;-0.59;74.42
81511;BME280;70931;48.796;8.440;2024-01-16T03:22:22;96715.38;;;-0.91;74.42
81511;BME280;70931;48.796;8.440;2024-01-16T03:24:47;96716.16;;;-0.78;75.63
81511;BME280;70931;48.796;8.440;2024-01-16T03:27:13;96711.41;;;-0.73;75.24
81511;BME280;70931;48.796;8.440;2024-01-16T03:29:38;96712.03;;;-0.93;74.47
81511;BME280;70931;48.796;8.440;2024-01-16T03:32:03;96706.84;;;-1.05;74.52
81511;BME280;70931;48.796;8.440;2024-01-16T03:34:30;96712.44;;;-0.86;74.57
81511;BME280;70931;48.796;8.440;2024-01-16T03:36:55;96717.91;;;-0.78;74.98
81511;BME280;70931;48.796;8.440;2024-01-16T03:39:21;96720.38;;;-0.88;74.76
81511;BME280;70931;48.796;8.440;2024-01-16T03:41:46;96712.00;;;-1.04;74.59
81511;BME280;70931;48.796;8.440;2024-01-16T03:44:11;96711.72;;;-1.12;75.20
81511;BME280;70931;48.796;8.440;2024-01-16T03:46:36;96712.00;;;-1.04;74.42
81511;BME280;70931;48.796;8.440;2024-01-16T03:49:01;96712.50;;;-1.23;75.02
81511;BME280;70931;48.796;8.440;2024-01-16T03:51:27;96719.28;;;-0.96;75.51
81511;BME280;70931;48.796;8.440;2024-01-16T03:53:52;96720.94;;;-0.95;74.19
81511;BME280;70931;48.796;8.440;2024-01-16T03:56:17;96721.84;;;-1.31;74.85
81511;BME280;70931;48.796;8.440;2024-01-16T03:58:42;96711.44;;;-1.20;75.68
81511;BME280;70931;48.796;8.440;2024-01-16T04:01:08;96706.38;;;-1.10;74.96
81511;BME280;70931;48.796;8.440;2024-01-16T04:03:34;96710.75;;;-1.11;74.66
81511;BME280;70931;48.796;8.440;2024-01-16T04:05:59;96697.91;;;-1.38;74.61
81511;BME280;70931;48.796;8.440;2024-01-16T04:08:24;96708.53;;;-1.28;75.11
81511;BME280;70931;48.796;8.440;2024-01-16T04:10:49;96709.72;;;-1.56;74.92
81511;BME280;70931;48.796;8.440;2024-01-16T04:13:15;96697.41;;;-1.66;75.51
81511;BME280;70931;48.796;8.440;2024-01-16T04:15:40;96704.63;;;-1.46;75.31
81511;BME280;70931;48.796;8.440;2024-01-16T04:18:06;96702.84;;;-1.69;74.08
81511;BME280;70931;48.796;8.440;2024-01-16T04:20:31;96708.25;;;-1.60;75.56
81511;BME280;70931;48.796;8.440;2024-01-16T04:22:56;96699.03;;;-1.53;74.34
81511;BME280;70931;48.796;8.440;2024-01-16T04:25:21;96704.56;;;-1.57;73.86
81511;BME280;70931;48.796;8.440;2024-01-16T04:27:47;96693.50;;;-1.97;75.29
81511;BME280;70931;48.796;8.440;2024-01-16T04:30:12;96695.13;;;-1.84;75.94
81511;BME280;70931;48.796;8.440;2024-01-16T04:32:37;96692.00;;;-1.89;75.03
81511;BME280;70931;48.796;8.440;2024-01-16T04:35:03;96602.94;;;-2.71;75.59
81511;BME280;70931;48.796;8.440;2024-01-16T04:37:28;96681.81;;;-2.04;75.38
81511;BME280;70931;48.796;8.440;2024-01-16T04:39:53;96678.03;;;-2.00;74.67
81511;BME280;70931;48.796;8.440;2024-01-16T04:42:19;96690.28;;;-2.26;75.87
81511;BME280;70931;48.796;8.440;2024-01-16T04:44:44;96687.88;;;-2.16;74.92
81511;BME280;70931;48.796;8.440;2024-01-16T04:47:10;96686.63;;;-2.11;75.64
81511;BME280;70931;48.796;8.440;2024-01-16T04:49:35;96682.75;;;-2.18;74.19
81511;BME280;70931;48.796;8.440;2024-01-16T04:52:00;96683.72;;;-2.32;74.92
81511;BME280;70931;48.796;8.440;2024-01-16T04:54:25;96679.25;;;-2.42;74.16
81511;BME280;70931;48.796;8.440;2024-01-16T04:56:50;96679.53;;;-2.34;74.30
81511;BME280;70931;48.796;8.440;2024-01-16T04:59:16;96679.16;;;-2.53;73.76
81511;BME280;70931;48.796;8.440;2024-01-16T05:01:41;96681.09;;;-2.69;74.92
81511;BME280;70931;48.796;8.440;2024-01-16T05:04:06;96677.88;;;-2.60;76.02
81511;BME280;70931;48.796;8.440;2024-01-16T05:06:31;96667.44;;;-2.60;75.63
81511;BME280;70931;48.796;8.440;2024-01-16T05:08:57;96670.66;;;-2.69;75.19
81511;BME280;70931;48.796;8.440;2024-01-16T05:11:22;96656.38;;;-2.51;75.13
81511;BME280;70931;48.796;8.440;2024-01-16T05:13:47;96664.94;;;-2.37;75.94
81511;BME280;70931;48.796;8.440;2024-01-16T05:16:13;96660.56;;;-2.61;74.37
81511;BME280;70931;48.796;8.440;2024-01-16T05:18:41;96657.53;;;-2.80;74.12
81511;BME280;70931;48.796;8.440;2024-01-16T05:21:06;96644.16;;;-2.89;74.99
81511;BME280;70931;48.796;8.440;2024-01-16T05:23:32;96649.09;;;-3.36;75.40
81511;BME280;70931;48.796;8.440;2024-01-16T05:25:57;96647.19;;;-3.07;75.90
81511;BME280;70931;48.796;8.440;2024-01-16T05:28:22;96633.59;;;-3.12;76.50
81511;BME280;70931;48.796;8.440;2024-01-16T05:30:47;96643.00;;;-2.97;75.67
81511;BME280;70931;48.796;8.440;2024-01-16T05:33:13;96642.53;;;-3.29;75.63
81511;BME280;70931;48.796;8.440;2024-01-16T05:35:38;96632.75;;;-3.13;76.27
81511;BME280;70931;48.796;8.440;2024-01-16T05:38:03;96634.75;;;-3.16;76.48
81511;BME280;70931;48.796;8.440;2024-01-16T05:40:29;96633.41;;;-2.97;76.11
81511;BME280;70931;48.796;8.440;2024-01-16T05:42:54;96624.53;;;-3.19;76.06
81511;BME280;70931;48.796;8.440;2024-01-16T05:45:19;96621.31;;;-3.10;76.18
81511;BME280;70931;48.796;8.440;2024-01-16T05:47:44;96631.66;;;-3.48;76.99
81511;BME280;70931;48.796;8.440;2024-01-16T05:50:10;96629.72;;;-3.32;76.92
81511;BME280;70931;48.796;8.440;2024-01-16T05:52:35;96631.38;;;-3.31;76.78
81511;BME280;70931;48.796;8.440;2024-01-16T05:55:01;96623.38;;;-3.03;76.95
81511;BME280;70931;48.796;8.440;2024-01-16T05:57:27;96627.13;;;-3.19;77.36
81511;BME280;70931;48.796;8.440;2024-01-16T05:59:52;96625.78;;;-3.00;76.70
81511;BME280;70931;48.796;8.440;2024-01-16T06:02:17;96629.19;;;-3.37;77.45
81511;BME280;70931;48.796;8.440;2024-01-16T06:04:42;96626.22;;;-3.06;76.68
81511;BME280;70931;48.796;8.440;2024-01-16T06:07:07;96637.72;;;-2.96;77.05
81511;BME280;70931;48.796;8.440;2024-01-16T06:09:33;96636.13;;;-2.85;76.25
81511;BME280;70931;48.796;8.440;2024-01-16T06:11:58;96641.56;;;-2.89;76.49
81511;BME280;70931;48.796;8.440;2024-01-16T06:14:24;96628.69;;;-3.04;76.72
81511;BME280;70931;48.796;8.440;2024-01-16T06:16:50;96637.47;;;-2.93;76.76
81511;BME280;70931;48.796;8.440;2024-01-16T06:19:15;96626.84;;;-2.77;75.96
81511;BME280;70931;48.796;8.440;2024-01-16T06:21:40;96635.69;;;-2.67;75.99
81511;BME280;70931;48.796;8.440;2024-01-16T06:24:06;96633.84;;;-2.77;76.43
81511;BME280;70931;48.796;8.440;2024-01-16T06:26:31;96634.25;;;-2.71;76.41
81511;BME280;70931;48.796;8.440;2024-01-16T06:28:56;96634.47;;;-2.74;75.98
81511;BME280;70931;48.796;8.440;2024-01-16T06:31:21;96640.91;;;-2.67;75.36
81511;BME280;70931;48.796;8.440;2024-01-16T06:33:47;96633.59;;;-2.49;76.10
81511;BME280;70931;48.796;8.440;2024-01-16T06:36:12;96626.41;;;-2.46;75.63
81511;BME280;70931;48.796;8.440;2024-01-16T06:38:38;96617.44;;;-2.42;76.05
81511;BME280;70931;48.796;8.440;2024-01-16T06:41:04;96632.56;;;-2.34;75.15
81511;BME280;70931;48.796;8.440;2024-01-16T06:43:29;96630.03;;;-2.23;75.11
81511;BME280;70931;48.796;8.440;2024-01-16T06:45:54;96631.03;;;-2.62;75.87
81511;BME280;70931;48.796;8.440;2024-01-16T06:48:19;96626.53;;;-2.47;75.12
81511;BME280;70931;48.796;8.440;2024-01-16T06:50:44;96631.94;;;-2.63;76.32
81511;BME280;70931;48.796;8.440;2024-01-16T06:53:10;96637.78;;;-2.72;77.11
81511;BME280;70931;48.796;8.440;2024-01-16T06:55:35;96638.22;;;-2.53;76.19
81511;BME280;70931;48.796;8.440;2024-01-16T06:58:00;96638.44;;;-2.94;77.83
81511;BME280;70931;48.796;8.440;2024-01-16T07:00:25;96639.16;;;-2.66;77.22
81511;BME280;70931;48.796;8.440;2024-01-16T07:02:51;96634.47;;;-2.61;76.41
81511;BME280;70931;48.796;8.440;2024-01-16T07:05:16;96618.38;;;-2.55;76.85
81511;BME280;70931;48.796;8.440;2024-01-16T07:07:41;96619.31;;;-2.69;76.98
81511;BME280;70931;48.796;8.440;2024-01-16T07:10:07;96619.22;;;-2.55;76.50
81511;BME280;70931;48.796;8.440;2024-01-16T07:12:32;96615.66;;;-2.41;77.04
81511;BME280;70931;48.796;8.440;2024-01-16T07:14:57;96616.03;;;-2.22;76.01
81511;BME280;70931;48.796;8.440;2024-01-16T07:17:23;96607.41;;;-2.48;76.85
81511;BME280;70931;48.796;8.440;2024-01-16T07:19:48;96616.50;;;-2.53;76.71
81511;BME280;70931;48.796;8.440;2024-01-16T07:22:13;96612.22;;;-2.54;76.83
81511;BME280;70931;48.796;8.440;2024-01-16T07:24:38;96614.41;;;-2.61;77.14
81511;BME280;70931;48.796;8.440;2024-01-16T07:27:03;96607.91;;;-2.30;76.33
81511;BME280;70931;48.796;8.440;2024-01-16T07:29:29;96612.16;;;-2.29;76.63
81511;BME280;70931;48.796;8.440;2024-01-16T07:31:54;96613.50;;;-2.11;75.87
81511;BME280;70931;48.796;8.440;2024-01-16T07:34:19;96547.38;;;-2.48;75.90
81511;BME280;70931;48.796;8.440;2024-01-16T07:36:45;96618.50;;;-2.08;75.47
81511;BME280;70931;48.796;8.440;2024-01-16T07:39:10;96588.97;;;-2.21;74.91
81511;BME280;70931;48.796;8.440;2024-01-16T07:41:35;96623.72;;;-2.08;75.21
81511;BME280;70931;48.796;8.440;2024-01-16T07:44:00;96626.84;;;-2.03;75.33
81511;BME280;70931;48.796;8.440;2024-01-16T07:46:25;96618.31;;;-2.17;75.73
81511;BME280;70931;48.796;8.440;2024-01-16T07:48:51;96624.16;;;-2.26;76.13
81511;BME280;70931;48.796;8.440;2024-01-16T07:51:16;96620.00;;;-2.29;76.20
81511;BME280;70931;48.796;8.440;2024-01-16T07:53:41;96626.91;;;-2.28;76.58
81511;BME280;70931;48.796;8.440;2024-01-16T07:56:06;96573.75;;;-2.76;76.73
81511;BME280;70931;48.796;8.440;2024-01-16T07:58:32;96621.31;;;-2.47;77.25
81511;BME280;70931;48.796;8.440;2024-01-16T08:00:57;96627.34;;;-2.34;77.30
81511;BME280;70931;48.796;8.440;2024-01-16T08:03:22;96629.53;;;-2.28;76.78
81511;BME280;70931;48.796;8.440;2024-01-16T08:05:47;96636.28;;;-2.13;76.23
81511;BME280;70931;48.796;8.440;2024-01-16T08:08:13;96605.25;;;-2.17;75.86
81511;BME280;70931;48.796;8.440;2024-01-16T08:10:41;96629.94;;;-1.98;76.22
81511;BME280;70931;48.796;8.440;2024-01-16T08:13:06;96633.03;;;-1.80;75.66
81511;BME280;70931;48.796;8.440;2024-01-16T08:15:31;96634.91;;;-1.69;75.62
81511;BME280;70931;48.796;8.440;2024-01-16T08:17:56;96635.88;;;-1.59;75.94
81511;BME280;70931;48.796;8.440;2024-01-16T08:20:21;96629.28;;;-1.52;75.34
81511;BME280;70931;48.796;8.440;2024-01-16T08:22:47;96634.00;;;-1.57;75.28
81511;BME280;70931;48.796;8.440;2024-01-16T08:25:12;96635.00;;;-1.47;75.21
81511;BME280;70931;48.796;8.440;2024-01-16T08:27:37;96628.72;;;-1.45;74.93
81511;BME280;70931;48.796;8.440;2024-01-16T08:30:06;96638.31;;;-1.45;74.30
81511;BME280;70931;48.796;8.440;2024-01-16T08:32:34;96640.50;;;-1.39;74.06
81511;BME280;70931;48.796;8.440;2024-01-16T08:34:59;96640.50;;;-1.39;74.43
81511;BME280;70931;48.796;8.440;2024-01-16T08:37:24;96633.66;;;-1.29;74.56
81511;BME280;70931;48.796;8.440;2024-01-16T08:39:49;96628.91;;;-1.24;73.69
81511;BME280;70931;48.796;8.440;2024-01-16T08:42:15;96644.03;;;-1.17;73.31
81511;BME280;70931;48.796;8.440;2024-01-16T08:44:40;96646.16;;;-1.22;72.70
81511;BME280;70931;48.796;8.440;2024-01-16T08:47:05;96647.84;;;-1.21;72.52
81511;BME280;70931;48.796;8.440;2024-01-16T08:49:30;96656.28;;;-1.17;73.29
81511;BME280;70931;48.796;8.440;2024-01-16T08:51:56;96646.47;;;-1.02;73.53
81511;BME280;70931;48.796;8.440;2024-01-16T08:54:21;96650.16;;;-0.94;74.39
81511;BME280;70931;48.796;8.440;2024-01-16T08:56:46;96648.25;;;-0.92;73.44
81511;BME280;70931;48.796;8.440;2024-01-16T08:59:11;96644.47;;;-0.88;73.46
81511;BME280;70931;48.796;8.440;2024-01-16T09:01:37;96644.97;;;-0.72;73.79
81511;BME280;70931;48.796;8.440;2024-01-16T09:04:02;96648.94;;;-0.66;73.39
81511;BME280;70931;48.796;8.440;2024-01-16T09:06:27;96645.50;;;-0.55;73.77
81511;BME280;70931;48.796;8.440;2024-01-16T09:08:52;96643.72;;;-0.44;73.76
81511;BME280;70931;48.796;8.440;2024-01-16T09:11:18;96635.75;;;-0.42;72.34
81511;BME280;70931;48.796;8.440;2024-01-16T09:13:43;96636.44;;;-0.63;72.00
81511;BME280;70931;48.796;8.440;2024-01-16T09:16:08;96634.91;;;-0.43;72.52
81511;BME280;70931;48.796;8.440;2024-01-16T09:18:33;96640.28;;;-0.44;72.84
81511;BME280;70931;48.796;8.440;2024-01-16T09:20:59;96637.28;;;-0.40;72.25
81511;BME280;70931;48.796;8.440;2024-01-16T09:23:24;96637.66;;;-0.22;72.33
81511;BME280;70931;48.796;8.440;2024-01-16T09:25:49;96635.25;;;-0.14;72.02
81511;BME280;70931;48.796;8.440;2024-01-16T09:28:14;96635.03;;;-0.11;71.51
81511;BME280;70931;48.796;8.440;2024-01-16T09:30:41;96636.84;;;-0.12;70.81
81511;BME280;70931;48.796;8.440;2024-01-16T09:33:07;96632.66;;;-0.03;70.89
81511;BME280;70931;48.796;8.440;2024-01-16T09:35:32;96634.31;;;-0.02;69.91
81511;BME280;70931;48.796;8.440;2024-01-16T09:37:58;96641.59;;;0.06;70.65
81511;BME280;70931;48.796;8.440;2024-01-16T09:40:23;96637.63;;;0.22;70.59
81511;BME280;70931;48.796;8.440;2024-01-16T09:42:49;96645.47;;;0.33;70.82
81511;BME280;70931;48.796;8.440;2024-01-16T09:45:19;96644.25;;;0.26;70.04
81511;BME280;70931;48.796;8.440;2024-01-16T09:47:46;96638.78;;;0.29;69.80
81511;BME280;70931;48.796;8.440;2024-01-16T09:50:13;96635.06;;;0.43;69.40
81511;BME280;70931;48.796;8.440;2024-01-16T09:52:39;96637.81;;;0.41;69.19
81511;BME280;70931;48.796;8.440;2024-01-16T09:55:04;96633.03;;;0.35;69.45
81511;BME280;70931;48.796;8.440;2024-01-16T09:57:31;96620.63;;;0.37;69.68
81511;BME280;70931;48.796;8.440;2024-01-16T09:59:57;96628.31;;;0.61;69.74
81511;BME280;70931;48.796;8.440;2024-01-16T10:02:23;96634.41;;;0.62;68.82
81511;BME280;70931;48.796;8.440;2024-01-16T10:04:48;96629.81;;;0.75;68.33
81511;BME280;70931;48.796;8.440;2024-01-16T10:07:15;96623.31;;;0.90;67.22
81511;BME280;70931;48.796;8.440;2024-01-16T10:09:41;96624.66;;;0.84;66.52
81511;BME280;70931;48.796;8.440;2024-01-16T10:12:07;96623.50;;;0.98;66.46
81511;BME280;70931;48.796;8.440;2024-01-16T10:14:33;96619.94;;;1.20;65.99
81511;BME280;70931;48.796;8.440;2024-01-16T10:17:02;96619.56;;;1.24;65.49
81511;BME280;70931;48.796;8.440;2024-01-16T10:19:31;96610.78;;;1.35;66.10
81511;BME280;70931;48.796;8.440;2024-01-16T10:22:04;96614.16;;;1.77;66.08
81511;BME280;70931;48.796;8.440;2024-01-16T10:24:30;96587.94;;;1.96;65.10
81511;BME280;70931;48.796;8.440;2024-01-16T10:26:59;96594.44;;;2.51;64.53
81511;BME280;70931;48.796;8.440;2024-01-16T10:29:24;96587.50;;;2.78;61.21
81511;BME280;70931;48.796;8.440;2024-01-16T10:31:49;96590.41;;;3.14;60.11
81511;BME280;70931;48.796;8.440;2024-01-16T10:34:24;96575.03;;;3.00;59.66
81511;BME280;70931;48.796;8.440;2024-01-16T10:36:50;96584.63;;;3.01;59.64
81511;BME280;70931;48.796;8.440;2024-01-16T10:39:16;96577.78;;;3.08;59.97
81511;BME280;70931;48.796;8.440;2024-01-16T10:41:41;96569.72;;;3.19;58.58
81511;BME280;70931;48.796;8.440;2024-01-16T10:44:07;96574.75;;;3.68;57.26
81511;BME280;70931;48.796;8.440;2024-01-16T10:46:34;96568.00;;;3.93;56.40
81511;BME280;70931;48.796;8.440;2024-01-16T10:49:03;96571.34;;;4.13;56.97
81511;BME280;70931;48.796;8.440;2024-01-16T10:51:30;96571.81;;;4.26;54.20
81511;BME280;70931;48.796;8.440;2024-01-16T10:54:00;96564.69;;;4.71;53.84
81511;BME280;70931;48.796;8.440;2024-01-16T10:56:28;96568.84;;;4.91;55.27
81511;BME280;70931;48.796;8.440;2024-01-16T10:59:25;96561.03;;;5.25;54.39
81511;BME280;70931;48.796;8.440;2024-01-16T11:01:58;96569.59;;;5.45;53.09
81511;BME280;70931;48.796;8.440;2024-01-16T11:04:24;96558.94;;;5.37;50.78
81511;BME280;70931;48.796;8.440;2024-01-16T11:06:54;96561.31;;;4.96;51.71
81511;BME280;70931;48.796;8.440;2024-01-16T11:09:20;96554.91;;;5.76;53.21
81511;BME280;70931;48.796;8.440;2024-01-16T11:11:46;96551.03;;;6.30;51.36
81511;BME280;70931;48.796;8.440;2024-01-16T11:14:12;96549.97;;;6.15;47.72
81511;BME280;70931;48.796;8.440;2024-01-16T11:16:39;96549.75;;;6.00;50.14
81511;BME280;70931;48.796;8.440;2024-01-16T11:19:07;96548.72;;;5.85;48.07
81511;BME280;70931;48.796;8.440;2024-01-16T11:21:33;96550.34;;;5.86;47.71
81511;BME280;70931;48.796;8.440;2024-01-16T11:23:59;96546.97;;;6.10;48.23
81511;BME280;70931;48.796;8.440;2024-01-16T11:26:28;96546.97;;;6.10;47.17
81511;BME280;70931;48.796;8.440;2024-01-16T11:28:54;96536.22;;;5.78;47.72
81511;BME280;70931;48.796;8.440;2024-01-16T11:31:29;96535.88;;;6.06;49.05
81511;BME280;70931;48.796;8.440;2024-01-16T11:33:54;96492.91;;;6.28;47.24
81511;BME280;70931;48.796;8.440;2024-01-16T11:36:49;96508.91;;;6.93;47.90
81511;BME280;70931;48.796;8.440;2024-01-16T11:39:18;96501.94;;;6.76;46.55
81511;BME280;70931;48.796;8.440;2024-01-16T11:41:48;96505.56;;;6.75;47.45
81511;BME280;70931;48.796;8.440;2024-01-16T11:44:46;96489.03;;;6.97;45.92
81511;BME280;70931;48.796;8.440;2024-01-16T11:47:19;96487.34;;;6.64;46.42
81511;BME280;70931;48.796;8.440;2024-01-16T11:49:46;96482.06;;;6.48;47.51
81511;BME280;70931;48.796;8.440;2024-01-16T11:52:11;96475.72;;;6.41;47.22
81511;BME280;70931;48.796;8.440;2024-01-16T11:54:36;96475.75;;;6.81;46.06
81511;BME280;70931;48.796;8.440;2024-01-16T11:57:26;96465.84;;;6.51;44.44
81511;BME280;70931;48.796;8.440;2024-01-16T12:00:04;96472.03;;;6.01;48.25
81511;BME280;70931;48.796;8.440;2024-01-16T12:05:15;96468.91;;;5.72;52.65
81511;BME280;70931;48.796;8.440;2024-01-16T12:07:48;96468.38;;;5.01;51.45
81511;BME280;70931;48.796;8.440;2024-01-16T12:10:13;96465.19;;;4.72;52.04
81511;BME280;70931;48.796;8.440;2024-01-16T12:12:39;96462.28;;;5.68;53.99
81511;BME280;70931;48.796;8.440;2024-01-16T12:15:04;96448.22;;;6.17;50.78
81511;BME280;70931;48.796;8.440;2024-01-16T12:17:29;96430.50;;;5.26;48.50
81511;BME280;70931;48.796;8.440;2024-01-16T12:19:55;96457.47;;;5.30;52.70
81511;BME280;70931;48.796;8.440;2024-01-16T12:22:20;96453.13;;;4.51;56.63
81511;BME280;70931;48.796;8.440;2024-01-16T12:24:45;96452.28;;;3.80;58.08
81511;BME280;70931;48.796;8.440;2024-01-16T12:27:11;96453.91;;;4.26;56.18
81511;BME280;70931;48.796;8.440;2024-01-16T12:29:36;96452.00;;;4.36;58.48
81511;BME280;70931;48.796;8.440;2024-01-16T12:32:08;96445.63;;;4.39;58.28
81511;BME280;70931;48.796;8.440;2024-01-16T12:34:34;96447.94;;;4.42;58.67
81511;BME280;70931;48.796;8.440;2024-01-16T12:37:06;96445.19;;;4.69;58.77
81511;BME280;70931;48.796;8.440;2024-01-16T12:39:31;96440.56;;;4.71;57.15
81511;BME280;70931;48.796;8.440;2024-01-16T12:41:56;96448.75;;;4.25;57.82
81511;BME280;70931;48.796;8.440;2024-01-16T12:44:29;96432.47;;;4.47;59.40
81511;BME280;70931;48.796;8.440;2024-01-16T12:46:55;96432.34;;;4.74;57.97
81511;BME280;70931;48.796;8.440;2024-01-16T12:49:20;96420.97;;;5.83;53.56
81511;BME280;70931;48.796;8.440;2024-01-16T12:51:46;96412.81;;;6.83;51.86
81511;BME280;70931;48.796;8.440;2024-01-16T12:54:13;96415.03;;;7.42;51.83
81511;BME280;70931;48.796;8.440;2024-01-16T12:56:39;96410.16;;;8.46;47.61
81511;BME280;70931;48.796;8.440;2024-01-16T12:59:14;96399.28;;;8.33;46.08
81511;BME280;70931;48.796;8.440;2024-01-16T13:01:49;96401.47;;;7.99;45.87